Mendoza, Texas
Current Conditions -  °F | °C
As of 5:35 AM on Tuesday 21 Oct 2014 (Local Time) from KHYI Reporting Station
Clear Clear  
Wind Chill: 15°   Ceiling: Unl
Heat Index: 15°   Visibility: 10mi
Dew Point: 11°   Wind: 6mph
Humidity: 77%   Direction: 360°N
Pressure: 30.04"   Gusts: NA
Location:  29.8965°N, 97.6713°W
Report Text: KHYI 211035Z 36005KT 10SM CLR 15/11 A3004 RMK AO1
Loading
Personal Weather Stations






























Interactive Weather Map
Tropical Storm Tracking
New forecast layout! Learn more

10-Day Weather Forecast

Advertisements
Track Severe Weather on mobile